sensor_id;sensor_type;location;lat;lon;timestamp;P1;durP1;ratioP1;P2;durP2;ratioP2
23236;SDS011;11787;52.018;8.570;2022-09-21T00:00:03;3.88;;;2.20;;
23236;SDS011;11787;52.018;8.570;2022-09-21T00:02:29;5.78;;;2.10;;
23236;SDS011;11787;52.018;8.570;2022-09-21T00:04:55;4.22;;;1.90;;
23236;SDS011;11787;52.018;8.570;2022-09-21T00:07:20;3.33;;;2.33;;
23236;SDS011;11787;52.018;8.570;2022-09-21T00:09:46;6.40;;;2.35;;
23236;SDS011;11787;52.018;8.570;2022-09-21T00:12:11;2.67;;;1.98;;
23236;SDS011;11787;52.018;8.570;2022-09-21T00:14:37;2.95;;;1.90;;
23236;SDS011;11787;52.018;8.570;2022-09-21T00:17:02;3.30;;;1.85;;
23236;SDS011;11787;52.018;8.570;2022-09-21T00:19:28;3.78;;;1.98;;
23236;SDS011;11787;52.018;8.570;2022-09-21T00:21:54;4.15;;;2.00;;
23236;SDS011;11787;52.018;8.570;2022-09-21T00:24:20;3.20;;;1.90;;
23236;SDS011;11787;52.018;8.570;2022-09-21T00:26:46;4.90;;;2.00;;
23236;SDS011;11787;52.018;8.570;2022-09-21T00:29:11;4.60;;;2.22;;
23236;SDS011;11787;52.018;8.570;2022-09-21T00:31:37;5.28;;;2.20;;
23236;SDS011;11787;52.018;8.570;2022-09-21T00:34:03;5.90;;;2.58;;
23236;SDS011;11787;52.018;8.570;2022-09-21T00:36:31;6.18;;;2.28;;
23236;SDS011;11787;52.018;8.570;2022-09-21T00:38:58;6.30;;;2.40;;
23236;SDS011;11787;52.018;8.570;2022-09-21T00:41:26;3.80;;;2.22;;
23236;SDS011;11787;52.018;8.570;2022-09-21T00:44:54;7.57;;;2.13;;
23236;SDS011;11787;52.018;8.570;2022-09-21T00:46:52;4.43;;;2.30;;
23236;SDS011;11787;52.018;8.570;2022-09-21T00:49:20;3.75;;;2.05;;
23236;SDS011;11787;52.018;8.570;2022-09-21T00:51:47;5.38;;;2.33;;
23236;SDS011;11787;52.018;8.570;2022-09-21T00:54:18;3.55;;;2.00;;
23236;SDS011;11787;52.018;8.570;2022-09-21T00:56:48;4.67;;;2.00;;
23236;SDS011;11787;52.018;8.570;2022-09-21T00:59:14;5.88;;;2.35;;
23236;SDS011;11787;52.018;8.570;2022-09-21T01:01:42;3.97;;;1.77;;
23236;SDS011;11787;52.018;8.570;2022-09-21T01:04:08;4.18;;;1.83;;
23236;SDS011;11787;52.018;8.570;2022-09-21T01:06:35;5.55;;;2.03;;
23236;SDS011;11787;52.018;8.570;2022-09-21T01:09:02;3.20;;;1.90;;
23236;SDS011;11787;52.018;8.570;2022-09-21T01:16:33;4.20;;;1.67;;
23236;SDS011;11787;52.018;8.570;2022-09-21T01:25:07;4.13;;;1.70;;
23236;SDS011;11787;52.018;8.570;2022-09-21T01:30:32;3.47;;;1.55;;
23236;SDS011;11787;52.018;8.570;2022-09-21T01:33:03;4.07;;;1.90;;
23236;SDS011;11787;52.018;8.570;2022-09-21T01:35:55;3.17;;;1.88;;
23236;SDS011;11787;52.018;8.570;2022-09-21T01:38:27;2.85;;;1.65;;
23236;SDS011;11787;52.018;8.570;2022-09-21T01:40:58;4.82;;;1.80;;
23236;SDS011;11787;52.018;8.570;2022-09-21T01:43:33;3.80;;;1.70;;
23236;SDS011;11787;52.018;8.570;2022-09-21T01:46:06;3.05;;;1.40;;
23236;SDS011;11787;52.018;8.570;2022-09-21T01:48:41;3.35;;;1.40;;
23236;SDS011;11787;52.018;8.570;2022-09-21T01:51:10;2.55;;;1.90;;
23236;SDS011;11787;52.018;8.570;2022-09-21T01:59:03;3.10;;;1.52;;
23236;SDS011;11787;52.018;8.570;2022-09-21T02:01:42;3.42;;;1.25;;
23236;SDS011;11787;52.018;8.570;2022-09-21T02:04:12;5.30;;;1.58;;
23236;SDS011;11787;52.018;8.570;2022-09-21T02:06:39;3.67;;;1.50;;
23236;SDS011;11787;52.018;8.570;2022-09-21T02:09:08;3.08;;;1.40;;
23236;SDS011;11787;52.018;8.570;2022-09-21T02:11:34;4.25;;;1.30;;
23236;SDS011;11787;52.018;8.570;2022-09-21T02:14:02;4.68;;;2.00;;
23236;SDS011;11787;52.018;8.570;2022-09-21T02:19:08;3.03;;;1.50;;
23236;SDS011;11787;52.018;8.570;2022-09-21T02:24:56;5.68;;;1.63;;
23236;SDS011;11787;52.018;8.570;2022-09-21T02:37:58;3.17;;;1.77;;
23236;SDS011;11787;52.018;8.570;2022-09-21T02:40:40;2.65;;;1.20;;
23236;SDS011;11787;52.018;8.570;2022-09-21T02:43:32;3.75;;;1.55;;
23236;SDS011;11787;52.018;8.570;2022-09-21T02:46:01;3.15;;;1.10;;
23236;SDS011;11787;52.018;8.570;2022-09-21T02:51:20;2.20;;;1.45;;
23236;SDS011;11787;52.018;8.570;2022-09-21T02:53:55;5.45;;;1.60;;
23236;SDS011;11787;52.018;8.570;2022-09-21T02:56:24;2.38;;;1.42;;
23236;SDS011;11787;52.018;8.570;2022-09-21T02:58:52;2.55;;;1.55;;
23236;SDS011;11787;52.018;8.570;2022-09-21T03:01:20;3.47;;;1.58;;
23236;SDS011;11787;52.018;8.570;2022-09-21T03:03:48;3.50;;;1.50;;
23236;SDS011;11787;52.018;8.570;2022-09-21T03:06:13;5.43;;;1.77;;
23236;SDS011;11787;52.018;8.570;2022-09-21T03:08:39;3.70;;;1.80;;
23236;SDS011;11787;52.018;8.570;2022-09-21T03:11:05;3.22;;;1.30;;
23236;SDS011;11787;52.018;8.570;2022-09-21T03:13:31;3.47;;;1.50;;
23236;SDS011;11787;52.018;8.570;2022-09-21T03:16:00;3.45;;;1.80;;
23236;SDS011;11787;52.018;8.570;2022-09-21T03:18:27;2.50;;;1.45;;
23236;SDS011;11787;52.018;8.570;2022-09-21T03:20:54;4.22;;;1.60;;
23236;SDS011;11787;52.018;8.570;2022-09-21T03:23:19;2.72;;;1.48;;
23236;SDS011;11787;52.018;8.570;2022-09-21T03:25:45;3.92;;;1.50;;
23236;SDS011;11787;52.018;8.570;2022-09-21T03:28:12;2.83;;;1.60;;
23236;SDS011;11787;52.018;8.570;2022-09-21T03:30:39;4.13;;;1.90;;
23236;SDS011;11787;52.018;8.570;2022-09-21T03:33:05;2.75;;;1.60;;
23236;SDS011;11787;52.018;8.570;2022-09-21T03:35:31;3.60;;;1.50;;
23236;SDS011;11787;52.018;8.570;2022-09-21T03:38:00;3.13;;;1.45;;
23236;SDS011;11787;52.018;8.570;2022-09-21T03:40:26;3.38;;;1.60;;
23236;SDS011;11787;52.018;8.570;2022-09-21T03:42:52;2.60;;;1.63;;
23236;SDS011;11787;52.018;8.570;2022-09-21T03:45:18;2.30;;;1.63;;
23236;SDS011;11787;52.018;8.570;2022-09-21T03:47:46;2.63;;;1.70;;
23236;SDS011;11787;52.018;8.570;2022-09-21T03:50:12;4.80;;;2.20;;
23236;SDS011;11787;52.018;8.570;2022-09-21T03:52:38;2.97;;;1.98;;
23236;SDS011;11787;52.018;8.570;2022-09-21T03:55:04;4.13;;;2.63;;
23236;SDS011;11787;52.018;8.570;2022-09-21T03:57:31;4.15;;;2.50;;
23236;SDS011;11787;52.018;8.570;2022-09-21T03:59:58;5.95;;;2.78;;
23236;SDS011;11787;52.018;8.570;2022-09-21T04:02:24;3.58;;;2.47;;
23236;SDS011;11787;52.018;8.570;2022-09-21T04:04:49;5.18;;;2.83;;
23236;SDS011;11787;52.018;8.570;2022-09-21T04:07:15;2.20;;;1.92;;
23236;SDS011;11787;52.018;8.570;2022-09-21T04:09:40;5.53;;;2.35;;
23236;SDS011;11787;52.018;8.570;2022-09-21T04:12:06;4.72;;;2.28;;
23236;SDS011;11787;52.018;8.570;2022-09-21T04:14:32;3.75;;;2.42;;
23236;SDS011;11787;52.018;8.570;2022-09-21T04:16:58;3.78;;;2.60;;
23236;SDS011;11787;52.018;8.570;2022-09-21T04:19:23;6.03;;;3.30;;
23236;SDS011;11787;52.018;8.570;2022-09-21T04:21:49;5.68;;;3.72;;
23236;SDS011;11787;52.018;8.570;2022-09-21T04:24:17;3.33;;;2.50;;
23236;SDS011;11787;52.018;8.570;2022-09-21T04:26:43;3.30;;;2.33;;
23236;SDS011;11787;52.018;8.570;2022-09-21T04:29:10;2.92;;;2.17;;
23236;SDS011;11787;52.018;8.570;2022-09-21T04:31:39;3.92;;;2.90;;
23236;SDS011;11787;52.018;8.570;2022-09-21T04:34:05;3.95;;;2.42;;
23236;SDS011;11787;52.018;8.570;2022-09-21T04:36:32;2.60;;;2.10;;
23236;SDS011;11787;52.018;8.570;2022-09-21T04:39:02;3.85;;;2.08;;
23236;SDS011;11787;52.018;8.570;2022-09-21T04:41:28;3.75;;;2.30;;
23236;SDS011;11787;52.018;8.570;2022-09-21T04:43:54;3.88;;;2.50;;
23236;SDS011;11787;52.018;8.570;2022-09-21T04:46:19;3.40;;;2.20;;
23236;SDS011;11787;52.018;8.570;2022-09-21T04:48:45;4.20;;;1.95;;
23236;SDS011;11787;52.018;8.570;2022-09-21T04:51:12;5.57;;;2.13;;
23236;SDS011;11787;52.018;8.570;2022-09-21T04:53:39;3.00;;;2.30;;
23236;SDS011;11787;52.018;8.570;2022-09-21T04:56:07;3.72;;;2.38;;
23236;SDS011;11787;52.018;8.570;2022-09-21T04:58:34;2.85;;;1.98;;
23236;SDS011;11787;52.018;8.570;2022-09-21T05:01:00;5.03;;;2.50;;
23236;SDS011;11787;52.018;8.570;2022-09-21T05:03:26;4.93;;;2.30;;
23236;SDS011;11787;52.018;8.570;2022-09-21T05:05:55;4.97;;;2.35;;
23236;SDS011;11787;52.018;8.570;2022-09-21T05:08:22;4.35;;;2.17;;
23236;SDS011;11787;52.018;8.570;2022-09-21T05:11:09;4.60;;;2.20;;
23236;SDS011;11787;52.018;8.570;2022-09-21T05:13:40;3.05;;;2.17;;
23236;SDS011;11787;52.018;8.570;2022-09-21T05:16:06;3.03;;;2.00;;
23236;SDS011;11787;52.018;8.570;2022-09-21T05:18:32;5.43;;;2.30;;
23236;SDS011;11787;52.018;8.570;2022-09-21T05:20:59;3.08;;;2.30;;
23236;SDS011;11787;52.018;8.570;2022-09-21T05:23:26;3.35;;;2.20;;
23236;SDS011;11787;52.018;8.570;2022-09-21T05:25:55;4.93;;;2.65;;
23236;SDS011;11787;52.018;8.570;2022-09-21T05:28:24;4.88;;;2.20;;
23236;SDS011;11787;52.018;8.570;2022-09-21T05:30:53;4.35;;;2.45;;
23236;SDS011;11787;52.018;8.570;2022-09-21T05:33:23;4.47;;;2.45;;
23236;SDS011;11787;52.018;8.570;2022-09-21T05:38:57;4.75;;;2.30;;
23236;SDS011;11787;52.018;8.570;2022-09-21T05:41:23;5.57;;;2.75;;
23236;SDS011;11787;52.018;8.570;2022-09-21T05:43:49;7.95;;;2.40;;
23236;SDS011;11787;52.018;8.570;2022-09-21T05:46:17;3.72;;;2.08;;
23236;SDS011;11787;52.018;8.570;2022-09-21T05:48:58;4.07;;;2.25;;
23236;SDS011;11787;52.018;8.570;2022-09-21T05:57:00;3.80;;;2.10;;
23236;SDS011;11787;52.018;8.570;2022-09-21T05:59:48;5.60;;;2.53;;
23236;SDS011;11787;52.018;8.570;2022-09-21T06:05:06;3.58;;;2.17;;
23236;SDS011;11787;52.018;8.570;2022-09-21T06:07:35;4.20;;;2.47;;
23236;SDS011;11787;52.018;8.570;2022-09-21T06:10:01;5.38;;;2.60;;
23236;SDS011;11787;52.018;8.570;2022-09-21T06:12:26;3.85;;;2.40;;
23236;SDS011;11787;52.018;8.570;2022-09-21T06:14:52;3.63;;;2.70;;
23236;SDS011;11787;52.018;8.570;2022-09-21T06:17:17;4.93;;;2.95;;
23236;SDS011;11787;52.018;8.570;2022-09-21T06:19:43;4.90;;;3.90;;
23236;SDS011;11787;52.018;8.570;2022-09-21T06:22:09;7.97;;;5.03;;
23236;SDS011;11787;52.018;8.570;2022-09-21T06:24:34;6.13;;;4.50;;
23236;SDS011;11787;52.018;8.570;2022-09-21T06:27:00;10.30;;;5.35;;
23236;SDS011;11787;52.018;8.570;2022-09-21T06:29:25;10.93;;;5.57;;
23236;SDS011;11787;52.018;8.570;2022-09-21T06:31:51;8.02;;;5.55;;
23236;SDS011;11787;52.018;8.570;2022-09-21T06:34:17;9.30;;;5.32;;
23236;SDS011;11787;52.018;8.570;2022-09-21T06:36:42;7.65;;;4.95;;
23236;SDS011;11787;52.018;8.570;2022-09-21T06:39:09;8.15;;;5.55;;
23236;SDS011;11787;52.018;8.570;2022-09-21T06:41:35;8.95;;;5.95;;
23236;SDS011;11787;52.018;8.570;2022-09-21T06:44:01;9.77;;;5.90;;
23236;SDS011;11787;52.018;8.570;2022-09-21T06:46:27;8.98;;;5.78;;
23236;SDS011;11787;52.018;8.570;2022-09-21T06:48:52;9.75;;;5.72;;
23236;SDS011;11787;52.018;8.570;2022-09-21T06:51:18;8.43;;;5.28;;
23236;SDS011;11787;52.018;8.570;2022-09-21T06:53:45;9.52;;;5.55;;
23236;SDS011;11787;52.018;8.570;2022-09-21T06:56:11;8.18;;;5.10;;
23236;SDS011;11787;52.018;8.570;2022-09-21T06:58:37;7.63;;;5.10;;
23236;SDS011;11787;52.018;8.570;2022-09-21T07:01:06;6.95;;;5.10;;
23236;SDS011;11787;52.018;8.570;2022-09-21T07:03:33;9.48;;;6.03;;
23236;SDS011;11787;52.018;8.570;2022-09-21T07:05:59;7.63;;;4.85;;
23236;SDS011;11787;52.018;8.570;2022-09-21T07:08:25;8.10;;;4.65;;
23236;SDS011;11787;52.018;8.570;2022-09-21T07:10:51;7.15;;;4.50;;
23236;SDS011;11787;52.018;8.570;2022-09-21T07:13:16;7.18;;;4.78;;
23236;SDS011;11787;52.018;8.570;2022-09-21T07:15:42;6.55;;;4.32;;
23236;SDS011;11787;52.018;8.570;2022-09-21T07:18:11;8.95;;;4.25;;
23236;SDS011;11787;52.018;8.570;2022-09-21T07:20:38;8.32;;;4.35;;
23236;SDS011;11787;52.018;8.570;2022-09-21T07:23:11;7.35;;;4.18;;
23236;SDS011;11787;52.018;8.570;2022-09-21T07:28:08;6.65;;;4.55;;
23236;SDS011;11787;52.018;8.570;2022-09-21T07:30:35;7.93;;;4.88;;
23236;SDS011;11787;52.018;8.570;2022-09-21T07:33:02;7.43;;;4.80;;
23236;SDS011;11787;52.018;8.570;2022-09-21T07:35:28;7.55;;;4.93;;
23236;SDS011;11787;52.018;8.570;2022-09-21T07:37:56;10.93;;;4.47;;
23236;SDS011;11787;52.018;8.570;2022-09-21T07:40:22;8.15;;;5.20;;
23236;SDS011;11787;52.018;8.570;2022-09-21T07:42:48;8.23;;;4.82;;
23236;SDS011;11787;52.018;8.570;2022-09-21T07:45:13;7.72;;;4.97;;
23236;SDS011;11787;52.018;8.570;2022-09-21T07:47:39;8.20;;;4.72;;
23236;SDS011;11787;52.018;8.570;2022-09-21T07:50:05;9.07;;;4.95;;
23236;SDS011;11787;52.018;8.570;2022-09-21T07:52:31;9.15;;;4.78;;
23236;SDS011;11787;52.018;8.570;2022-09-21T07:54:56;10.73;;;5.47;;
23236;SDS011;11787;52.018;8.570;2022-09-21T07:57:22;8.30;;;5.28;;
23236;SDS011;11787;52.018;8.570;2022-09-21T08:00:06;10.52;;;5.47;;
23236;SDS011;11787;52.018;8.570;2022-09-21T08:02:33;8.68;;;5.28;;
23236;SDS011;11787;52.018;8.570;2022-09-21T08:04:58;8.75;;;5.65;;
23236;SDS011;11787;52.018;8.570;2022-09-21T08:07:24;8.93;;;6.07;;
23236;SDS011;11787;52.018;8.570;2022-09-21T08:09:51;7.35;;;5.30;;
23236;SDS011;11787;52.018;8.570;2022-09-21T08:12:17;7.35;;;5.45;;
23236;SDS011;11787;52.018;8.570;2022-09-21T08:14:44;8.35;;;5.55;;
23236;SDS011;11787;52.018;8.570;2022-09-21T08:17:11;7.72;;;5.53;;
23236;SDS011;11787;52.018;8.570;2022-09-21T08:19:37;9.65;;;5.53;;
23236;SDS011;11787;52.018;8.570;2022-09-21T08:22:03;7.43;;;5.15;;
23236;SDS011;11787;52.018;8.570;2022-09-21T08:24:28;12.05;;;5.93;;
23236;SDS011;11787;52.018;8.570;2022-09-21T08:26:55;8.45;;;4.85;;
23236;SDS011;11787;52.018;8.570;2022-09-21T08:29:22;8.25;;;4.93;;
23236;SDS011;11787;52.018;8.570;2022-09-21T08:31:48;10.90;;;4.65;;
23236;SDS011;11787;52.018;8.570;2022-09-21T08:34:14;11.68;;;5.10;;
23236;SDS011;11787;52.018;8.570;2022-09-21T08:36:40;10.48;;;4.57;;
23236;SDS011;11787;52.018;8.570;2022-09-21T08:39:06;10.35;;;4.15;;
23236;SDS011;11787;52.018;8.570;2022-09-21T08:41:43;10.57;;;4.50;;
23236;SDS011;11787;52.018;8.570;2022-09-21T08:50:02;7.47;;;3.33;;
23236;SDS011;11787;52.018;8.570;2022-09-21T08:52:29;7.78;;;3.22;;
23236;SDS011;11787;52.018;8.570;2022-09-21T08:54:58;9.23;;;2.88;;
23236;SDS011;11787;52.018;8.570;2022-09-21T10:23:26;7.22;;;0.90;;
23236;SDS011;11787;52.018;8.570;2022-09-21T10:25:57;7.50;;;1.23;;
23236;SDS011;11787;52.018;8.570;2022-09-21T10:31:15;3.00;;;0.88;;
23236;SDS011;11787;52.018;8.570;2022-09-21T10:33:47;4.15;;;0.98;;
23236;SDS011;11787;52.018;8.570;2022-09-21T10:36:28;5.22;;;0.95;;
23236;SDS011;11787;52.018;8.570;2022-09-21T10:39:16;5.53;;;1.20;;
23236;SDS011;11787;52.018;8.570;2022-09-21T10:42:03;3.67;;;1.00;;
23236;SDS011;11787;52.018;8.570;2022-09-21T10:44:43;4.97;;;1.45;;
23236;SDS011;11787;52.018;8.570;2022-09-21T10:49:46;4.95;;;1.30;;
23236;SDS011;11787;52.018;8.570;2022-09-21T10:52:20;6.20;;;0.80;;
23236;SDS011;11787;52.018;8.570;2022-09-21T10:54:57;5.07;;;1.00;;
23236;SDS011;11787;52.018;8.570;2022-09-21T10:57:23;3.22;;;1.00;;
23236;SDS011;11787;52.018;8.570;2022-09-21T10:59:51;4.55;;;1.25;;
23236;SDS011;11787;52.018;8.570;2022-09-21T11:02:25;5.18;;;1.00;;
23236;SDS011;11787;52.018;8.570;2022-09-21T11:07:33;3.05;;;0.80;;
23236;SDS011;11787;52.018;8.570;2022-09-21T11:29:36;3.10;;;0.60;;
23236;SDS011;11787;52.018;8.570;2022-09-21T11:42:32;3.92;;;1.02;;
23236;SDS011;11787;52.018;8.570;2022-09-21T11:56:22;3.90;;;0.80;;
23236;SDS011;11787;52.018;8.570;2022-09-21T12:10:38;3.80;;;0.98;;
23236;SDS011;11787;52.018;8.570;2022-09-21T12:18:49;4.35;;;1.00;;
23236;SDS011;11787;52.018;8.570;2022-09-21T12:21:25;3.63;;;1.00;;
23236;SDS011;11787;52.018;8.570;2022-09-21T12:23:58;4.50;;;1.23;;
23236;SDS011;11787;52.018;8.570;2022-09-21T12:26:45;2.78;;;0.95;;
23236;SDS011;11787;52.018;8.570;2022-09-21T12:29:30;3.63;;;0.82;;
23236;SDS011;11787;52.018;8.570;2022-09-21T12:32:02;3.05;;;0.88;;
23236;SDS011;11787;52.018;8.570;2022-09-21T12:34:40;4.10;;;0.90;;
23236;SDS011;11787;52.018;8.570;2022-09-21T14:14:14;4.93;;;0.85;;
23236;SDS011;11787;52.018;8.570;2022-09-21T14:17:32;4.00;;;0.95;;
23236;SDS011;11787;52.018;8.570;2022-09-21T16:21:29;3.80;;;1.42;;
23236;SDS011;11787;52.018;8.570;2022-09-21T16:24:34;3.90;;;1.00;;
23236;SDS011;11787;52.018;8.570;2022-09-21T16:26:55;4.93;;;0.97;;
23236;SDS011;11787;52.018;8.570;2022-09-21T16:29:25;4.43;;;0.93;;
23236;SDS011;11787;52.018;8.570;2022-09-21T16:34:41;6.97;;;1.20;;
23236;SDS011;11787;52.018;8.570;2022-09-21T16:39:48;6.60;;;1.10;;
23236;SDS011;11787;52.018;8.570;2022-09-21T16:42:14;4.30;;;0.80;;
23236;SDS011;11787;52.018;8.570;2022-09-21T16:44:40;2.40;;;0.68;;
23236;SDS011;11787;52.018;8.570;2022-09-21T16:47:13;3.05;;;1.05;;
23236;SDS011;11787;52.018;8.570;2022-09-21T16:49:40;3.28;;;0.80;;
23236;SDS011;11787;52.018;8.570;2022-09-21T16:52:06;3.53;;;0.93;;
23236;SDS011;11787;52.018;8.570;2022-09-21T16:54:32;3.75;;;1.00;;
23236;SDS011;11787;52.018;8.570;2022-09-21T16:57:01;3.45;;;0.73;;
23236;SDS011;11787;52.018;8.570;2022-09-21T16:59:28;2.90;;;1.10;;
23236;SDS011;11787;52.018;8.570;2022-09-21T17:01:55;4.18;;;1.20;;
23236;SDS011;11787;52.018;8.570;2022-09-21T17:04:22;4.97;;;1.55;;
23236;SDS011;11787;52.018;8.570;2022-09-21T17:06:52;3.58;;;1.10;;
23236;SDS011;11787;52.018;8.570;2022-09-21T17:09:23;4.55;;;1.10;;
23236;SDS011;11787;52.018;8.570;2022-09-21T17:11:49;2.83;;;0.82;;
23236;SDS011;11787;52.018;8.570;2022-09-21T17:14:16;2.42;;;1.00;;
23236;SDS011;11787;52.018;8.570;2022-09-21T17:19:19;4.00;;;1.10;;
23236;SDS011;11787;52.018;8.570;2022-09-21T20:56:51;9.25;;;5.85;;
23236;SDS011;11787;52.018;8.570;2022-09-21T20:59:16;9.10;;;5.47;;
23236;SDS011;11787;52.018;8.570;2022-09-21T21:01:42;8.57;;;4.97;;
23236;SDS011;11787;52.018;8.570;2022-09-21T21:04:07;13.18;;;6.03;;
23236;SDS011;11787;52.018;8.570;2022-09-21T21:06:34;9.27;;;5.13;;
23236;SDS011;11787;52.018;8.570;2022-09-21T21:09:01;9.73;;;4.35;;
23236;SDS011;11787;52.018;8.570;2022-09-21T21:11:27;7.13;;;4.00;;
23236;SDS011;11787;52.018;8.570;2022-09-21T21:13:53;21.48;;;11.95;;
23236;SDS011;11787;52.018;8.570;2022-09-21T21:16:20;22.73;;;16.60;;
23236;SDS011;11787;52.018;8.570;2022-09-21T21:18:45;11.35;;;5.47;;
23236;SDS011;11787;52.018;8.570;2022-09-21T21:21:11;11.15;;;5.68;;
23236;SDS011;11787;52.018;8.570;2022-09-21T21:23:37;8.50;;;4.93;;
23236;SDS011;11787;52.018;8.570;2022-09-21T21:26:21;8.95;;;5.15;;
23236;SDS011;11787;52.018;8.570;2022-09-21T21:28:47;11.88;;;5.03;;
23236;SDS011;11787;52.018;8.570;2022-09-21T21:31:13;9.52;;;4.97;;
23236;SDS011;11787;52.018;8.570;2022-09-21T21:33:39;8.00;;;5.55;;
23236;SDS011;11787;52.018;8.570;2022-09-21T21:36:05;10.55;;;5.25;;
23236;SDS011;11787;52.018;8.570;2022-09-21T21:38:32;8.80;;;5.32;;
23236;SDS011;11787;52.018;8.570;2022-09-21T21:40:58;7.50;;;4.40;;
23236;SDS011;11787;52.018;8.570;2022-09-21T21:43:24;8.60;;;4.32;;
23236;SDS011;11787;52.018;8.570;2022-09-21T21:45:53;8.00;;;4.97;;
23236;SDS011;11787;52.018;8.570;2022-09-21T21:48:18;12.90;;;4.60;;
23236;SDS011;11787;52.018;8.570;2022-09-21T21:50:44;7.43;;;4.60;;
23236;SDS011;11787;52.018;8.570;2022-09-21T21:53:10;8.70;;;4.65;;
23236;SDS011;11787;52.018;8.570;2022-09-21T21:55:35;7.55;;;4.35;;
23236;SDS011;11787;52.018;8.570;2022-09-21T21:58:01;7.47;;;4.38;;
23236;SDS011;11787;52.018;8.570;2022-09-21T22:00:26;6.53;;;4.00;;
23236;SDS011;11787;52.018;8.570;2022-09-21T22:02:54;6.75;;;4.03;;
23236;SDS011;11787;52.018;8.570;2022-09-21T22:05:20;6.00;;;3.65;;
23236;SDS011;11787;52.018;8.570;2022-09-21T22:07:46;7.30;;;3.90;;
23236;SDS011;11787;52.018;8.570;2022-09-21T22:10:13;7.55;;;3.80;;
23236;SDS011;11787;52.018;8.570;2022-09-21T22:12:38;8.40;;;4.35;;
23236;SDS011;11787;52.018;8.570;2022-09-21T22:15:04;6.82;;;4.65;;
23236;SDS011;11787;52.018;8.570;2022-09-21T22:17:30;10.35;;;5.30;;
23236;SDS011;11787;52.018;8.570;2022-09-21T22:19:56;8.73;;;4.90;;
23236;SDS011;11787;52.018;8.570;2022-09-21T22:22:21;8.70;;;4.63;;
23236;SDS011;11787;52.018;8.570;2022-09-21T22:24:47;10.45;;;4.85;;
23236;SDS011;11787;52.018;8.570;2022-09-21T22:27:13;6.72;;;4.22;;
23236;SDS011;11787;52.018;8.570;2022-09-21T22:29:38;6.43;;;3.85;;
23236;SDS011;11787;52.018;8.570;2022-09-21T22:32:04;7.82;;;3.92;;
23236;SDS011;11787;52.018;8.570;2022-09-21T22:34:30;6.28;;;3.35;;
23236;SDS011;11787;52.018;8.570;2022-09-21T22:36:56;6.15;;;3.65;;
23236;SDS011;11787;52.018;8.570;2022-09-21T22:39:23;5.97;;;3.40;;
23236;SDS011;11787;52.018;8.570;2022-09-21T22:41:48;7.40;;;3.53;;
23236;SDS011;11787;52.018;8.570;2022-09-21T22:44:14;5.97;;;3.40;;
23236;SDS011;11787;52.018;8.570;2022-09-21T22:46:40;6.30;;;3.40;;
23236;SDS011;11787;52.018;8.570;2022-09-21T22:49:05;8.15;;;3.47;;
23236;SDS011;11787;52.018;8.570;2022-09-21T22:51:31;6.72;;;3.30;;
23236;SDS011;11787;52.018;8.570;2022-09-21T22:53:57;5.30;;;3.00;;
23236;SDS011;11787;52.018;8.570;2022-09-21T22:56:27;6.60;;;3.80;;
23236;SDS011;11787;52.018;8.570;2022-09-21T22:58:55;8.20;;;3.72;;
23236;SDS011;11787;52.018;8.570;2022-09-21T23:01:26;6.32;;;3.25;;
23236;SDS011;11787;52.018;8.570;2022-09-21T23:03:55;6.35;;;3.33;;
23236;SDS011;11787;52.018;8.570;2022-09-21T23:06:24;4.93;;;3.05;;
23236;SDS011;11787;52.018;8.570;2022-09-21T23:08:52;9.93;;;3.60;;
23236;SDS011;11787;52.018;8.570;2022-09-21T23:11:20;6.78;;;3.42;;
23236;SDS011;11787;52.018;8.570;2022-09-21T23:13:51;8.40;;;3.95;;
23236;SDS011;11787;52.018;8.570;2022-09-21T23:16:17;7.40;;;3.28;;
23236;SDS011;11787;52.018;8.570;2022-09-21T23:18:43;6.40;;;3.22;;
23236;SDS011;11787;52.018;8.570;2022-09-21T23:21:14;6.53;;;3.20;;
23236;SDS011;11787;52.018;8.570;2022-09-21T23:23:41;7.22;;;3.42;;
23236;SDS011;11787;52.018;8.570;2022-09-21T23:26:09;6.43;;;2.85;;
23236;SDS011;11787;52.018;8.570;2022-09-21T23:28:35;6.13;;;2.60;;
23236;SDS011;11787;52.018;8.570;2022-09-21T23:31:03;5.53;;;3.30;;
23236;SDS011;11787;52.018;8.570;2022-09-21T23:33:31;7.38;;;3.08;;
23236;SDS011;11787;52.018;8.570;2022-09-21T23:36:02;7.00;;;2.97;;
23236;SDS011;11787;52.018;8.570;2022-09-21T23:38:29;7.57;;;3.20;;
23236;SDS011;11787;52.018;8.570;2022-09-21T23:41:08;3.78;;;2.65;;
23236;SDS011;11787;52.018;8.570;2022-09-21T23:43:36;5.22;;;2.63;;
23236;SDS011;11787;52.018;8.570;2022-09-21T23:46:02;4.85;;;2.95;;
23236;SDS011;11787;52.018;8.570;2022-09-21T23:48:29;6.93;;;2.72;;
23236;SDS011;11787;52.018;8.570;2022-09-21T23:50:55;7.43;;;2.88;;
23236;SDS011;11787;52.018;8.570;2022-09-21T23:53:22;6.25;;;2.88;;
23236;SDS011;11787;52.018;8.570;2022-09-21T23:55:48;6.38;;;3.00;;
23236;SDS011;11787;52.018;8.570;2022-09-21T23:58:14;4.85;;;2.70;;
